Time;durP1;ratioP1;P1;durP2;ratioP2;P2;SDS_P1;SDS_P2;PMS_P1;PMS_P2;Temp;Humidity;BMP_temperature;BMP_pressure;BME280_temperature;BME280_humidity;BME280_pressure;Samples;Min_cycle;Max_cycle;Signal;HPM_P1;HPM_P2
2022/05/12 00:07:14;;;;;;;7.55;3.05;;;23.70;35.30;;;;;;21005856;28;20084;-62
2022/05/12 00:17:16;;;;;;;7.00;2.60;;;23.60;35.50;;;;;;21005867;28;20045;-65
2022/05/12 00:27:17;;;;;;;5.83;3.03;;;23.50;35.50;;;;;;21005819;28;20489;-65
2022/05/12 00:37:19;;;;;;;5.37;2.40;;;23.40;35.90;;;;;;21004490;28;20040;-65
2022/05/12 00:47:21;;;;;;;7.47;2.27;;;23.20;35.90;;;;;;20984934;28;20408;-65
2022/05/12 00:57:43;;;;;;;8.10;3.13;;;23.00;36.30;;;;;;21002020;28;20051;-65
2022/05/12 01:07:44;;;;;;;8.95;3.20;;;22.90;36.80;;;;;;20984321;28;20088;-65
2022/05/12 01:17:46;;;;;;;9.98;3.38;;;22.80;37.40;;;;;;21000578;28;20045;-65
2022/05/12 01:27:48;;;;;;;8.60;2.80;;;22.80;37.50;;;;;;21000291;28;20083;-64
2022/05/12 01:37:49;;;;;;;7.93;3.55;;;22.60;37.70;;;;;;20981086;28;20324;-66
2022/05/12 01:47:51;;;;;;;5.93;2.90;;;22.40;38.30;;;;;;20998427;28;20080;-65
2022/05/12 01:57:53;;;;;;;7.87;2.93;;;22.20;38.50;;;;;;20998286;28;20099;-64
2022/05/12 02:07:55;;;;;;;6.03;2.67;;;22.20;38.60;;;;;;20995730;28;20044;-65
2022/05/12 02:17:58;;;;;;;6.97;2.83;;;22.10;39.20;;;;;;20996402;28;20052;-64
2022/05/12 02:28:09;;;;;;;7.88;2.58;;;21.80;39.90;;;;;;20996010;28;20481;-65
2022/05/12 02:38:12;;;;;;;10.03;2.80;;;21.70;39.80;;;;;;20995599;28;20044;-65
2022/05/12 02:48:15;;;;;;;6.20;2.63;;;21.60;39.90;;;;;;20995876;28;20479;-66
2022/05/12 02:58:19;;;;;;;9.02;2.38;;;21.50;40.00;;;;;;20996137;28;20044;-66
2022/05/12 03:08:26;;;;;;;6.00;2.50;;;21.40;39.90;;;;;;20994912;28;20137;-65
2022/05/12 03:18:32;;;;;;;4.75;2.60;;;21.30;40.20;;;;;;20978903;28;20040;-67
2022/05/12 03:28:40;;;;;;;9.02;3.38;;;21.20;40.30;;;;;;21010659;28;20121;-65
2022/05/12 03:39:04;;;;;;;11.20;4.50;;;21.10;40.10;;;;;;21010216;28;20040;-64
2022/05/12 03:49:26;;;;;;;5.65;2.40;;;21.10;40.20;;;;;;21008151;28;20704;-65
2022/05/12 03:59:41;;;;;;;7.38;2.50;;;20.90;40.40;;;;;;21007669;28;20054;-64
2022/05/12 04:09:50;;;;;;;5.40;2.60;;;20.80;40.60;;;;;;21007265;28;20114;-66
2022/05/12 04:19:55;;;;;;;5.88;2.35;;;20.70;40.60;;;;;;21006600;28;20447;-65
2022/05/12 04:29:59;;;;;;;7.43;2.78;;;20.70;41.00;;;;;;21004169;28;20052;-66
2022/05/12 04:40:13;;;;;;;8.35;3.72;;;20.70;41.40;;;;;;21004949;28;20186;-66
2022/05/12 04:50:25;;;;;;;7.65;3.42;;;20.60;41.90;;;;;;21003032;28;20048;-65
2022/05/12 05:00:32;;;;;;;9.95;3.45;;;20.40;42.40;;;;;;21002529;28;20045;-68
2022/05/12 05:10:34;;;;;;;5.93;2.80;;;20.30;42.50;;;;;;20999886;28;20052;-67
2022/05/12 05:20:35;;;;;;;9.05;3.58;;;20.30;42.70;;;;;;21001832;28;20491;-66
2022/05/12 05:30:37;;;;;;;7.82;3.10;;;20.30;42.90;;;;;;21000868;28;20048;-71
2022/05/12 05:40:39;;;;;;;8.82;3.20;;;20.20;43.10;;;;;;20999379;28;20048;-72
2022/05/12 06:01:20;;;;;;;5.68;2.75;;;20.20;43.70;;;;;;20742726;28;20050;-65
2022/05/12 06:11:22;;;;;;;8.13;3.13;;;20.20;43.80;;;;;;20741102;28;20141;-63
2022/05/12 06:21:23;;;;;;;7.32;3.63;;;20.20;43.80;;;;;;20740320;28;20622;-64
2022/05/12 06:31:29;;;;;;;6.90;3.42;;;20.20;43.80;;;;;;20867120;28;20544;-63
2022/05/12 06:41:32;;;;;;;10.30;3.33;;;20.30;44.10;;;;;;20977417;28;20485;-63
2022/05/12 06:51:33;;;;;;;6.93;3.27;;;20.40;43.90;;;;;;20994704;28;20049;-63
2022/05/12 07:01:35;;;;;;;11.10;4.22;;;20.50;44.00;;;;;;21010027;28;20106;-62
2022/05/12 07:11:37;;;;;;;9.10;3.70;;;20.70;43.60;;;;;;21010238;28;20060;-63
2022/05/12 07:31:58;;;;;;;6.80;2.92;;;;;;;;;;21009558;28;20063;-64
2022/05/12 07:42:01;;;;;;;10.10;3.40;;;;;;;;;;21008893;28;20445;-62
2022/05/12 07:52:06;;;;;;;7.63;3.05;;;;;;;;;;21007683;28;20083;-65
2022/05/12 08:02:09;;;;;;;8.30;3.72;;;;;;;;;;21006541;28;20048;-63
2022/05/12 08:12:11;;;;;;;;;;;;;;;;;;21005718;28;20060;-65
2022/05/12 08:22:13;;;;;;;6.53;2.50;;;;;;;;;;21005258;28;20416;-64
2022/05/12 08:32:15;;;;;;;9.53;2.37;;;;;;;;;;21005445;28;20478;-73
2022/05/12 08:42:36;;;;;;;8.50;2.40;;;;;;;;;;21004105;28;20118;-64
2022/05/12 08:52:44;;;;;;;9.63;3.33;;;;;;;;;;21003206;28;20147;-64
2022/05/12 09:03:11;;;;;;;7.22;3.58;;;;;;;;;;21002145;28;20049;-63
2022/05/12 09:13:16;;;;;;;8.50;2.80;;;;;;;;;;20987029;28;20056;-63
2022/05/12 09:23:18;;;;;;;9.02;2.80;;;;;;;;;;20971217;28;20484;-64
2022/05/12 09:33:20;;;;;;;;;;;;;;;;;;20998130;28;20050;-59
2022/05/12 09:43:31;;;;;;;15.57;3.78;;;;;;;;;;20971097;28;19994;-59
2022/05/12 09:53:33;;;;;;;17.65;3.17;;;;;;;;;;20969185;28;20048;-64
2022/05/12 10:14:05;;;;;;;12.35;2.63;;;;;;;;;;20957367;28;20409;-64
2022/05/12 10:24:19;;;;;;;10.82;3.50;;;;;;;;;;20913412;28;20065;-60
2022/05/12 10:34:37;;;;;;;13.25;2.70;;;;;;;;;;20912117;28;20122;-61
2022/05/12 10:44:59;;;;;;;8.13;2.60;;;;;;;;;;20911544;28;20049;-61
2022/05/12 10:55:10;;;;;;;10.90;2.88;;;;;;;;;;20911271;28;20416;-66
2022/05/12 11:05:15;;;;;;;11.37;4.63;;;;;;;;;;20910094;28;20099;-61
2022/05/12 11:15:29;;;;;;;6.90;2.40;;;;;;;;;;20910643;28;20048;-65
2022/05/12 11:25:31;;;;;;;8.20;2.75;;;;;;;;;;20910984;28;20548;-66
2022/05/12 11:35:44;;;;;;;6.88;2.83;;;;;;;;;;20908266;28;20100;-65
2022/05/12 11:45:48;;;;;;;8.48;2.70;;;;;;;;;;20919698;28;20060;-63
2022/05/12 11:55:53;;;;;;;11.57;3.15;;;;;;;;;;20924200;28;20079;-64
2022/05/12 12:05:56;;;;;;;6.65;2.28;;;;;;;;;;20924304;28;20053;-62
2022/05/12 12:15:57;;;;;;;;;;;;;;;;;;20922998;28;20057;-62
2022/05/12 12:26:03;;;;;;;9.45;2.88;;;;;;;;;;20922011;28;19920;-63
2022/05/12 12:36:07;;;;;;;8.55;3.25;;;;;;;;;;20922245;28;20052;-63
2022/05/12 12:46:16;;;;;;;7.90;2.88;;;;;;;;;;20919952;28;20126;-63
2022/05/12 12:56:31;;;;;;;7.10;2.53;;;;;;;;;;20918956;28;20048;-72
2022/05/12 13:06:37;;;;;;;8.75;2.70;;;;;;;;;;20918839;28;20095;-73
2022/05/12 13:16:41;;;;;;;9.75;2.80;;;;;;;;;;20927375;28;20493;-68
2022/05/12 13:26:45;;;;;;;7.88;2.92;;;;;;;;;;20919263;28;20519;-72
2022/05/12 13:36:49;;;;;;;14.35;4.57;;;;;;;;;;20916782;28;20099;-66
2022/05/12 13:46:53;;;;;;;10.00;3.33;;;;;;;;;;20916519;28;20045;-65
2022/05/12 13:57:15;;;;;;;7.90;3.85;;;;;;;;;;20914938;28;20041;-66
2022/05/12 14:07:26;;;;;;;12.50;4.07;;;;;;;;;;20915635;28;20474;-66
2022/05/12 14:27:49;;;;;;;11.73;3.63;;;;;;;;;;20912895;28;20091;-63
2022/05/12 14:37:51;;;;;;;10.05;4.10;;;;;;;;;;20912666;28;20071;-64
2022/05/12 14:47:56;;;;;;;12.60;5.13;;;;;;;;;;20911960;28;20127;-65
2022/05/12 14:57:58;;;;;;;8.10;3.22;;;;;;;;;;20912386;28;20540;-67
2022/05/12 15:08:01;;;;;;;8.38;3.75;;;27.40;30.90;;;;;;20911245;28;20048;-68
2022/05/12 15:18:04;;;;;;;8.35;4.00;;;27.50;30.30;;;;;;20918029;28;20108;-66
2022/05/12 15:28:07;;;;;;;6.97;3.40;;;27.90;30.20;;;;;;20927222;28;20052;-71
2022/05/12 15:38:14;;;;;;;8.80;3.08;;;27.70;29.30;;;;;;20925721;28;20067;-71
2022/05/12 15:48:18;;;;;;;9.25;4.55;;;27.80;29.30;;;;;;20924185;28;20052;-66
2022/05/12 15:58:20;;;;;;;9.25;3.63;;;27.70;29.50;;;;;;20945321;28;20045;-69
2022/05/12 16:08:23;;;;;;;9.75;3.30;;;27.80;29.20;;;;;;20929130;28;20531;-64
2022/05/12 16:18:25;;;;;;;9.77;3.47;;;27.80;28.90;;;;;;20942919;28;20083;-61
2022/05/12 16:28:35;;;;;;;9.68;3.63;;;27.60;29.50;;;;;;20992095;28;20052;-64
2022/05/12 16:38:37;;;;;;;8.55;2.45;;;27.80;29.10;;;;;;21003095;28;20048;-71
2022/05/12 16:48:39;;;;;;;8.05;2.75;;;27.70;28.80;;;;;;20983754;28;20113;-69
2022/05/12 16:58:41;;;;;;;9.98;3.22;;;27.60;28.90;;;;;;21002520;28;20401;-70
2022/05/12 17:08:43;;;;;;;7.35;4.60;;;27.70;28.20;;;;;;20999540;28;20084;-59
2022/05/12 17:18:46;;;;;;;7.30;3.17;;;27.60;28.20;;;;;;20998879;28;20049;-60
2022/05/12 17:28:49;;;;;;;8.15;3.30;;;27.50;28.10;;;;;;20978518;28;20103;-59
2022/05/12 17:38:52;;;;;;;7.47;3.40;;;27.40;28.20;;;;;;20932715;28;20106;-61
2022/05/12 17:48:53;;;;;;;10.90;3.00;;;27.30;28.50;;;;;;20994716;28;20173;-63
2022/05/12 17:58:55;;;;;;;9.63;3.42;;;27.50;27.90;;;;;;20977743;28;20094;-63
2022/05/12 18:08:58;;;;;;;4.15;2.78;;;27.40;28.50;;;;;;20994395;28;20402;-63
2022/05/12 18:19:00;;;;;;;8.90;3.40;;;27.40;28.50;;;;;;20924824;28;20045;-69
2022/05/12 18:29:02;;;;;;;9.05;3.60;;;27.40;28.70;;;;;;20911842;28;20496;-73
2022/05/12 18:39:04;;;;;;;10.98;5.82;;;27.20;29.00;;;;;;20940239;28;20123;-64
2022/05/12 18:49:06;;;;;;;9.32;3.88;;;27.00;29.10;;;;;;20994243;28;20044;-62
2022/05/12 18:59:09;;;;;;;10.40;4.10;;;26.80;29.60;;;;;;20995254;28;20049;-67
2022/05/12 19:09:10;;;;;;;6.78;3.47;;;26.70;30.60;;;;;;20993622;28;20144;-76
2022/05/12 19:19:13;;;;;;;5.13;3.35;;;26.30;31.50;;;;;;20993657;28;20068;-74
2022/05/12 19:29:15;;;;;;;7.28;3.55;;;26.00;32.50;;;;;;20993304;28;20087;-74
2022/05/12 19:39:17;;;;;;;;;;;25.80;32.60;;;;;;20993922;28;20106;-68
2022/05/12 19:49:20;;;;;;;10.60;4.60;;;25.50;32.80;;;;;;20993228;28;19920;-68
2022/05/12 19:59:22;;;;;;;6.85;4.28;;;25.50;32.80;;;;;;20992559;28;20073;-66
2022/05/12 20:09:24;;;;;;;;;;;25.50;32.40;;;;;;21006995;28;20057;-67
2022/05/12 20:19:28;;;;;;;8.00;4.70;;;25.30;32.60;;;;;;21006438;28;19973;-67
2022/05/12 20:29:31;;;;;;;10.30;5.82;;;25.20;32.60;;;;;;21005159;28;20084;-68
2022/05/12 20:39:33;;;;;;;8.77;5.13;;;25.10;32.90;;;;;;20944879;28;20045;-68
2022/05/12 20:49:35;;;;;;;11.85;6.45;;;25.00;33.00;;;;;;20920105;28;20107;-68
2022/05/12 20:59:39;;;;;;;15.73;8.55;;;25.00;33.30;;;;;;20920294;28;20041;-68
2022/05/12 21:09:41;;;;;;;14.00;7.75;;;24.80;34.00;;;;;;20918427;28;20057;-69
2022/05/12 21:19:43;;;;;;;13.60;6.45;;;24.60;34.90;;;;;;20918002;28;20186;-67
2022/05/12 21:29:45;;;;;;;10.20;6.20;;;24.40;35.40;;;;;;20917755;28;20138;-69
2022/05/12 21:39:47;;;;;;;12.80;5.60;;;24.20;36.50;;;;;;20917615;28;20379;-67
2022/05/12 21:49:48;;;;;;;;;;;23.90;38.10;;;;;;20917366;28;20398;-68
2022/05/12 22:10:13;;;;;;;6.80;4.03;;;23.60;38.70;;;;;;20914854;28;20140;-67
2022/05/12 22:20:16;;;;;;;12.70;5.68;;;23.60;38.50;;;;;;20915125;28;20049;-69
2022/05/12 22:30:18;;;;;;;9.25;6.07;;;23.60;38.40;;;;;;20913822;28;20413;-67
2022/05/12 22:40:20;;;;;;;12.65;6.70;;;23.60;38.50;;;;;;20913935;28;20074;-66
2022/05/12 22:50:23;;;;;;;14.23;4.70;;;23.50;38.30;;;;;;20895850;28;20095;-68
2022/05/12 23:00:27;;;;;;;11.77;4.20;;;23.40;38.20;;;;;;20895787;28;20119;-68
2022/05/12 23:10:29;;;;;;;8.55;3.85;;;23.20;38.50;;;;;;20912022;28;20114;-68
2022/05/12 23:30:51;;;;;;;13.70;4.28;;;22.90;38.40;;;;;;20910991;28;20061;-67
2022/05/12 23:40:53;;;;;;;8.57;3.70;;;22.80;38.80;;;;;;20921311;28;20041;-67
2022/05/12 23:50:55;;;;;;;9.63;3.53;;;22.70;38.80;;;;;;20925779;28;20136;-66
